createdAt,value
2022-12-18T00:00:46.567Z,10.83
2022-12-18T00:03:13.780Z,12.90
2022-12-18T00:05:47.389Z,15.10
2022-12-18T00:08:14.507Z,19.07
2022-12-18T00:10:41.643Z,16.67
2022-12-18T00:13:10.236Z,20.73
2022-12-18T00:15:37.714Z,17.00
2022-12-18T00:18:06.718Z,18.50
2022-12-18T00:20:37.217Z,18.13
2022-12-18T00:23:04.319Z,19.30
2022-12-18T00:25:31.704Z,18.73
2022-12-18T00:27:58.798Z,16.60
2022-12-18T00:30:26.112Z,22.60
2022-12-18T00:32:53.180Z,17.47
2022-12-18T00:35:21.810Z,15.90
2022-12-18T00:37:48.897Z,22.90
2022-12-18T00:40:16.129Z,12.97
2022-12-18T00:42:43.212Z,14.23
2022-12-18T00:45:12.919Z,17.63
2022-12-18T00:47:40.639Z,20.60
2022-12-18T00:50:08.403Z,16.00
2022-12-18T00:52:36.883Z,17.00
2022-12-18T00:55:06.413Z,16.20
2022-12-18T00:57:33.858Z,15.90
2022-12-18T01:00:00.985Z,16.80
2022-12-18T01:02:28.229Z,11.73
2022-12-18T01:04:55.888Z,15.30
2022-12-18T01:07:23.017Z,16.20
2022-12-18T01:09:51.440Z,17.50
2022-12-18T01:12:18.540Z,21.00
2022-12-18T01:14:45.638Z,19.67
2022-12-18T01:17:12.753Z,13.77
2022-12-18T01:19:39.864Z,14.93
2022-12-18T01:22:09.112Z,15.00
2022-12-18T01:24:36.183Z,20.63
2022-12-18T01:27:04.658Z,15.40
2022-12-18T01:29:31.806Z,16.00
2022-12-18T01:31:58.988Z,15.30
2022-12-18T01:34:26.241Z,13.83
2022-12-18T01:36:53.365Z,12.80
2022-12-18T01:39:20.712Z,21.20
2022-12-18T01:41:48.173Z,23.17
2022-12-18T01:44:34.597Z,16.23
2022-12-18T01:47:03.331Z,16.03
2022-12-18T01:49:30.422Z,15.27
2022-12-18T01:51:57.660Z,15.77
2022-12-18T01:54:24.763Z,17.30
2022-12-18T01:56:51.936Z,20.43
2022-12-18T01:59:19.181Z,22.17
2022-12-18T02:01:46.570Z,19.40
2022-12-18T02:04:22.890Z,18.50
2022-12-18T02:06:52.441Z,15.83
2022-12-18T02:09:22.249Z,15.13
2022-12-18T02:11:52.139Z,17.70
2022-12-18T02:14:23.891Z,21.60
2022-12-18T02:16:54.230Z,14.37
2022-12-18T02:19:33.639Z,19.40
2022-12-18T02:22:07.640Z,16.17
2022-12-18T02:24:36.951Z,15.90
2022-12-18T02:27:06.850Z,16.60
2022-12-18T02:29:35.943Z,13.50
2022-12-18T02:32:04.800Z,14.80
2022-12-18T02:34:33.173Z,14.87
2022-12-18T02:37:02.641Z,16.73
2022-12-18T02:39:31.474Z,14.73
2022-12-18T02:42:03.691Z,14.07
2022-12-18T02:44:32.126Z,18.17
2022-12-18T02:46:59.253Z,18.90
2022-12-18T02:49:33.055Z,14.67
2022-12-18T02:52:05.932Z,11.90
2022-12-18T02:54:40.276Z,22.90
2022-12-18T02:57:14.746Z,15.13
2022-12-18T02:59:48.062Z,16.33
2022-12-18T03:02:19.396Z,16.50
2022-12-18T03:04:49.436Z,10.33
2022-12-18T03:07:20.185Z,15.10
2022-12-18T03:09:50.908Z,10.10
2022-12-18T03:12:20.409Z,11.90
2022-12-18T03:14:51.476Z,13.03
2022-12-18T03:17:21.008Z,14.97
2022-12-18T03:19:48.886Z,13.97
2022-12-18T03:22:16.945Z,16.37
2022-12-18T03:24:51.495Z,16.17
2022-12-18T03:27:20.098Z,15.50
2022-12-18T03:29:50.681Z,12.80
2022-12-18T03:32:25.281Z,17.10
2022-12-18T03:34:54.581Z,16.03
2022-12-18T03:37:23.609Z,15.57
2022-12-18T03:39:52.722Z,20.97
2022-12-18T03:42:25.037Z,21.30
2022-12-18T03:44:59.180Z,15.80
2022-12-18T03:47:29.255Z,25.03
2022-12-18T03:50:03.710Z,14.33
2022-12-18T03:52:37.833Z,13.40
2022-12-18T03:55:06.858Z,14.57
2022-12-18T03:57:35.278Z,11.43
2022-12-18T04:00:08.834Z,14.13
2022-12-18T04:02:43.330Z,13.23
2022-12-18T04:05:12.177Z,16.07
2022-12-18T04:07:42.060Z,13.30
2022-12-18T04:10:11.244Z,19.10
2022-12-18T04:12:38.700Z,15.73
2022-12-18T04:15:09.183Z,19.40
2022-12-18T04:17:36.559Z,13.50
2022-12-18T04:20:05.079Z,14.60
2022-12-18T04:22:32.790Z,11.73
2022-12-18T04:25:00.482Z,16.20
2022-12-18T04:27:35.522Z,15.13
2022-12-18T04:30:03.500Z,17.80
2022-12-18T04:32:32.668Z,21.17
2022-12-18T04:35:00.811Z,21.43
2022-12-18T04:37:28.083Z,12.57
2022-12-18T04:39:55.833Z,16.57
2022-12-18T04:42:31.201Z,12.97
2022-12-18T04:44:58.284Z,16.47
2022-12-18T04:47:25.423Z,12.37
2022-12-18T04:49:53.862Z,14.17
2022-12-18T04:52:25.406Z,12.57
2022-12-18T04:54:52.492Z,19.13
2022-12-18T04:57:19.716Z,14.63
2022-12-18T04:59:46.827Z,19.50
2022-12-18T05:02:14.070Z,10.80
2022-12-18T05:04:41.335Z,24.20
2022-12-18T05:07:09.800Z,13.80
2022-12-18T05:09:36.898Z,19.73
2022-12-18T05:12:04.151Z,11.27
2022-12-18T05:14:31.248Z,13.50
2022-12-18T05:17:01.039Z,15.13
2022-12-18T05:19:28.469Z,17.13
2022-12-18T05:21:55.597Z,13.33
2022-12-18T05:24:24.020Z,19.30
2022-12-18T05:26:51.211Z,17.17
2022-12-18T05:29:18.312Z,14.57
2022-12-18T05:31:45.440Z,14.50
2022-12-18T05:34:12.725Z,16.37
2022-12-18T05:36:40.117Z,16.73
2022-12-18T05:39:07.231Z,13.13
2022-12-18T05:41:35.686Z,17.33
2022-12-18T05:44:02.884Z,14.10
2022-12-18T05:46:30.170Z,18.27
2022-12-18T05:49:00.445Z,15.80
2022-12-18T05:51:27.530Z,15.67
2022-12-18T05:53:54.684Z,10.47
2022-12-18T05:56:22.442Z,20.83
2022-12-18T05:58:52.328Z,11.23
2022-12-18T06:01:20.593Z,13.50
2022-12-18T06:03:48.134Z,12.43
2022-12-18T06:06:15.920Z,12.80
2022-12-18T06:08:46.447Z,13.27
2022-12-18T06:11:14.430Z,14.77
2022-12-18T06:13:41.871Z,16.77
2022-12-18T06:16:10.541Z,14.87
2022-12-18T06:18:37.800Z,13.47
2022-12-18T06:21:05.172Z,16.80
2022-12-18T06:23:32.284Z,14.13
2022-12-18T06:25:59.388Z,15.63
2022-12-18T06:28:26.462Z,18.37
2022-12-18T06:30:53.563Z,10.87
2022-12-18T06:33:22.031Z,18.57
2022-12-18T06:35:49.121Z,13.13
2022-12-18T06:38:16.198Z,14.67
2022-12-18T06:40:43.310Z,11.47
2022-12-18T06:43:10.481Z,16.37
2022-12-18T06:45:37.640Z,18.13
2022-12-18T06:48:04.797Z,10.00
2022-12-18T06:50:33.286Z,19.33
2022-12-18T06:53:00.737Z,13.00
2022-12-18T06:55:27.988Z,14.73
2022-12-18T06:57:55.051Z,13.00
2022-12-18T07:00:22.163Z,13.30
2022-12-18T07:02:49.376Z,12.33
2022-12-18T07:05:16.652Z,16.50
2022-12-18T07:07:45.141Z,12.23
2022-12-18T07:10:12.329Z,15.40
2022-12-18T07:12:39.463Z,13.50
2022-12-18T07:15:07.246Z,15.27
2022-12-18T07:17:34.368Z,13.93
2022-12-18T07:20:01.459Z,13.40
2022-12-18T07:22:28.572Z,21.13
2022-12-18T07:24:56.998Z,17.83
2022-12-18T07:27:24.448Z,20.90
2022-12-18T07:29:51.691Z,15.70
2022-12-18T07:32:18.801Z,10.07
2022-12-18T07:34:45.906Z,17.30
2022-12-18T07:37:14.367Z,20.27
2022-12-18T07:39:41.951Z,14.90
2022-12-18T07:42:10.513Z,21.07
2022-12-18T07:44:40.681Z,10.03
2022-12-18T07:47:11.775Z,16.70
2022-12-18T07:49:39.569Z,11.80
2022-12-18T07:52:06.669Z,13.17
2022-12-18T07:54:33.754Z,16.17
2022-12-18T07:57:01.193Z,9.20
2022-12-18T07:59:29.611Z,20.17
2022-12-18T08:01:56.911Z,12.83
2022-12-18T08:04:24.172Z,12.77
2022-12-18T08:06:52.433Z,22.60
2022-12-18T08:09:19.576Z,18.60
2022-12-18T08:11:46.679Z,16.80
2022-12-18T08:14:13.781Z,13.63
2022-12-18T08:16:42.290Z,19.10
2022-12-18T08:19:09.428Z,16.73
2022-12-18T08:21:36.549Z,14.93
2022-12-18T08:24:03.776Z,16.30
2022-12-18T08:26:31.418Z,11.50
2022-12-18T08:28:59.132Z,16.67
2022-12-18T08:31:26.950Z,12.53
2022-12-18T08:33:55.908Z,10.90
2022-12-18T08:36:24.363Z,12.50
2022-12-18T08:38:52.809Z,15.57
2022-12-18T08:41:20.042Z,15.57
2022-12-18T08:43:47.138Z,16.67
2022-12-18T08:46:17.707Z,16.43
2022-12-18T08:48:45.078Z,17.30
2022-12-18T08:51:13.578Z,15.33
2022-12-18T08:53:41.114Z,17.93
2022-12-18T08:56:09.183Z,13.60
2022-12-18T08:58:36.290Z,12.43
2022-12-18T09:01:03.774Z,11.33
2022-12-18T09:03:31.104Z,17.23
2022-12-18T09:05:58.422Z,9.13
2022-12-18T09:08:26.864Z,17.10
2022-12-18T09:10:53.962Z,12.63
2022-12-18T09:13:21.063Z,13.93
2022-12-18T09:15:49.239Z,12.60
2022-12-18T09:18:17.121Z,25.90
2022-12-18T09:20:44.386Z,10.13
2022-12-18T09:23:11.549Z,15.07
2022-12-18T09:25:40.180Z,13.50
2022-12-18T09:28:07.892Z,15.37
2022-12-18T09:30:35.025Z,12.70
2022-12-18T09:33:02.849Z,12.73
2022-12-18T09:35:29.946Z,19.40
2022-12-18T09:37:57.035Z,9.57
2022-12-18T09:40:25.364Z,13.73
2022-12-18T09:42:55.975Z,15.63
2022-12-18T09:45:23.273Z,14.93
2022-12-18T09:47:51.577Z,9.73
2022-12-18T09:50:22.728Z,15.27
2022-12-18T09:52:50.876Z,18.47
2022-12-18T09:55:23.004Z,13.83
2022-12-18T09:57:52.955Z,14.33
2022-12-18T10:00:22.480Z,12.93
2022-12-18T10:02:50.469Z,12.00
2022-12-18T10:05:22.298Z,8.30
2022-12-18T10:07:55.260Z,14.10
2022-12-18T10:10:31.460Z,17.80
2022-12-18T10:13:04.683Z,14.57
2022-12-18T10:15:36.533Z,15.63
2022-12-18T10:18:09.711Z,13.17
2022-12-18T10:20:39.041Z,11.43
2022-12-18T10:23:13.497Z,8.60
2022-12-18T10:25:43.537Z,12.20
2022-12-18T10:28:12.640Z,15.10
2022-12-18T10:30:41.763Z,16.20
2022-12-18T10:33:11.842Z,11.67
2022-12-18T10:35:42.285Z,13.73
2022-12-18T10:38:22.023Z,13.77
2022-12-18T10:40:50.136Z,14.50
2022-12-18T10:43:20.731Z,12.07
2022-12-18T10:46:00.543Z,17.93
2022-12-18T10:48:28.228Z,15.20
2022-12-18T10:51:10.799Z,15.33
2022-12-18T10:53:41.445Z,20.40
2022-12-18T10:56:08.701Z,17.13
2022-12-18T10:58:36.652Z,10.43
2022-12-18T11:01:07.127Z,16.13
2022-12-18T11:03:35.140Z,15.17
2022-12-18T11:06:06.666Z,13.23
2022-12-18T11:08:34.123Z,13.40
2022-12-18T11:11:01.369Z,15.27
2022-12-18T11:13:30.091Z,10.07
2022-12-18T11:15:57.521Z,21.10
2022-12-18T11:18:28.174Z,16.23
2022-12-18T11:20:58.659Z,11.70
2022-12-18T11:23:26.541Z,10.53
2022-12-18T11:25:54.771Z,12.50
2022-12-18T11:28:36.817Z,15.00
2022-12-18T11:31:17.254Z,20.07
2022-12-18T11:34:11.954Z,18.27
2022-12-18T11:36:37.851Z,13.00
2022-12-18T11:39:10.591Z,9.70
2022-12-18T11:41:40.608Z,14.00
2022-12-18T11:44:09.636Z,13.10
2022-12-18T11:46:38.563Z,15.53
2022-12-18T11:49:09.295Z,15.87
2022-12-18T11:51:39.172Z,11.90
2022-12-18T11:54:13.224Z,12.07
2022-12-18T11:56:43.751Z,18.37
2022-12-18T11:59:17.697Z,18.83
2022-12-18T12:01:50.375Z,18.00
2022-12-18T12:04:35.532Z,13.10
2022-12-18T12:07:07.148Z,13.40
2022-12-18T12:09:38.151Z,19.87
2022-12-18T12:12:12.189Z,25.27
2022-12-18T12:14:49.341Z,14.80
2022-12-18T12:17:22.249Z,20.10
2022-12-18T12:19:51.392Z,17.50
2022-12-18T12:22:25.516Z,21.57
2022-12-18T12:25:01.112Z,18.37
2022-12-18T12:27:34.989Z,20.93
2022-12-18T12:30:04.850Z,15.63
2022-12-18T12:32:39.138Z,17.53
2022-12-18T12:35:11.466Z,16.10
2022-12-18T12:37:43.064Z,16.37
2022-12-18T12:40:48.340Z,15.23
2022-12-18T12:43:02.677Z,17.17
2022-12-18T12:45:30.975Z,14.63
2022-12-18T12:47:59.339Z,19.30
2022-12-18T12:50:26.819Z,17.10
2022-12-18T12:52:57.241Z,25.57
2022-12-18T12:55:25.439Z,21.80
2022-12-18T12:57:57.915Z,21.67
2022-12-18T13:00:27.328Z,19.77
2022-12-18T13:02:58.398Z,16.43
2022-12-18T13:05:27.363Z,26.17
2022-12-18T13:07:58.528Z,26.43
2022-12-18T13:10:36.115Z,22.73
2022-12-18T13:13:05.112Z,28.80
2022-12-18T13:15:38.612Z,20.47
2022-12-18T13:18:12.186Z,21.37
2022-12-18T13:20:40.009Z,19.97
2022-12-18T13:23:27.232Z,19.23
2022-12-18T13:25:54.788Z,24.40
2022-12-18T13:28:22.791Z,26.20
2022-12-18T13:30:55.871Z,16.37
2022-12-18T13:34:24.657Z,25.73
2022-12-18T13:36:38.445Z,14.33
2022-12-18T13:39:12.544Z,23.13
2022-12-18T13:41:39.704Z,23.37
2022-12-18T13:44:13.723Z,23.03
2022-12-18T13:46:44.687Z,19.80
2022-12-18T13:49:20.661Z,19.10
2022-12-18T13:51:49.417Z,20.80
2022-12-18T13:54:21.040Z,17.57
2022-12-18T13:56:48.992Z,27.83
2022-12-18T13:59:24.562Z,17.73
2022-12-18T14:01:53.745Z,19.43
2022-12-18T14:04:25.878Z,21.20
2022-12-18T14:06:54.675Z,16.50
2022-12-18T14:09:25.978Z,11.20
2022-12-18T14:11:54.119Z,24.23
2022-12-18T14:14:21.337Z,31.80
2022-12-18T14:16:48.902Z,24.90
2022-12-18T14:19:17.557Z,22.53
2022-12-18T14:21:47.304Z,24.43
2022-12-18T14:24:15.593Z,30.27
2022-12-18T14:26:48.589Z,20.80
2022-12-18T14:29:22.576Z,32.60
2022-12-18T14:32:04.552Z,27.93
2022-12-18T14:34:31.646Z,23.77
2022-12-18T14:36:58.758Z,25.20
2022-12-18T14:39:25.899Z,27.20
2022-12-18T14:41:55.322Z,25.33
2022-12-18T14:44:23.194Z,30.00
2022-12-18T14:46:51.091Z,29.57
2022-12-18T14:49:23.156Z,25.20
2022-12-18T14:51:51.110Z,21.67
2022-12-18T14:54:19.366Z,23.30
2022-12-18T14:56:47.631Z,19.57
2022-12-18T14:59:23.859Z,34.00
2022-12-18T15:01:58.184Z,21.57
2022-12-18T15:04:27.854Z,19.90
2022-12-18T15:07:06.380Z,27.43
2022-12-18T15:09:33.500Z,23.30
2022-12-18T15:12:01.712Z,38.60
2022-12-18T15:14:40.417Z,21.00
2022-12-18T15:17:08.511Z,20.87
2022-12-18T15:19:38.900Z,27.00
2022-12-18T15:22:06.775Z,26.30
2022-12-18T15:24:34.347Z,27.70
2022-12-18T15:27:01.654Z,34.90
2022-12-18T15:29:28.768Z,19.50
2022-12-18T15:32:04.827Z,23.73
2022-12-18T15:34:32.904Z,30.57
2022-12-18T15:37:00.010Z,29.43
2022-12-18T15:39:27.114Z,22.03
2022-12-18T15:41:54.237Z,26.03
2022-12-18T15:44:23.830Z,29.37
2022-12-18T15:46:51.009Z,22.57
2022-12-18T15:49:19.489Z,25.03
2022-12-18T15:51:48.116Z,29.63
2022-12-18T15:54:16.349Z,33.90
2022-12-18T15:56:43.448Z,18.80
2022-12-18T15:59:11.632Z,31.13
2022-12-18T16:01:42.411Z,25.10
2022-12-18T16:04:10.678Z,27.13
2022-12-18T16:07:05.405Z,31.33
2022-12-18T16:09:26.398Z,32.00
2022-12-18T16:11:53.890Z,31.70
2022-12-18T16:14:21.921Z,28.07
2022-12-18T16:16:50.868Z,24.00
2022-12-18T16:19:18.038Z,33.03
2022-12-18T16:21:47.308Z,30.23
2022-12-18T16:24:16.793Z,36.23
2022-12-18T16:26:43.983Z,27.43
2022-12-18T16:29:11.184Z,30.13
2022-12-18T16:31:39.264Z,34.43
2022-12-18T16:34:13.075Z,20.77
2022-12-18T16:36:40.215Z,25.77
2022-12-18T16:39:08.690Z,35.30
2022-12-18T16:41:35.816Z,33.93
2022-12-18T16:44:03.287Z,26.33
2022-12-18T16:46:30.459Z,25.70
2022-12-18T16:48:58.409Z,32.73
2022-12-18T16:51:25.580Z,30.63
2022-12-18T16:53:52.709Z,27.47
2022-12-18T16:56:21.391Z,29.03
2022-12-18T16:58:51.494Z,33.50
2022-12-18T17:01:18.704Z,39.57
2022-12-18T17:03:46.693Z,38.03
2022-12-18T17:06:15.452Z,38.13
2022-12-18T17:08:44.057Z,30.37
2022-12-18T17:11:11.500Z,29.80
2022-12-18T17:13:40.317Z,37.83
2022-12-18T17:16:08.245Z,32.20
2022-12-18T17:18:35.880Z,36.53
2022-12-18T17:21:03.553Z,37.50
2022-12-18T17:23:31.050Z,35.57
2022-12-18T17:25:58.996Z,33.97
2022-12-18T17:28:26.217Z,47.30
2022-12-18T17:30:55.443Z,37.93
2022-12-18T17:33:23.014Z,33.93
2022-12-18T17:35:50.174Z,27.00
2022-12-18T17:38:17.640Z,38.63
2022-12-18T17:40:46.572Z,29.97
2022-12-18T17:43:13.950Z,34.70
2022-12-18T17:45:41.123Z,33.80
2022-12-18T17:48:09.835Z,26.47
2022-12-18T17:50:37.026Z,33.53
2022-12-18T17:53:04.108Z,41.77
2022-12-18T17:55:31.246Z,41.13
2022-12-18T17:57:58.336Z,36.30
2022-12-18T18:00:25.453Z,25.60
2022-12-18T18:02:52.697Z,37.30
2022-12-18T18:05:21.362Z,48.13
2022-12-18T18:07:49.591Z,25.20
2022-12-18T18:10:17.228Z,36.40
2022-12-18T18:12:44.294Z,24.40
2022-12-18T18:15:11.547Z,40.90
2022-12-18T18:17:38.768Z,35.87
2022-12-18T18:20:06.195Z,36.10
2022-12-18T18:22:34.885Z,45.07
2022-12-18T18:25:01.979Z,46.03
2022-12-18T18:27:32.720Z,45.73
2022-12-18T18:30:04.301Z,42.00
2022-12-18T18:32:31.455Z,35.37
2022-12-18T18:34:58.532Z,48.63
2022-12-18T18:37:25.634Z,44.30
2022-12-18T18:39:54.140Z,45.00
2022-12-18T18:42:21.241Z,31.63
2022-12-18T18:44:49.172Z,37.70
2022-12-18T18:47:16.352Z,41.13
2022-12-18T18:49:43.428Z,29.27
2022-12-18T18:52:10.494Z,38.50
2022-12-18T18:54:37.597Z,52.37
2022-12-18T18:57:24.270Z,39.00
2022-12-18T18:59:53.150Z,43.83
2022-12-18T19:02:20.322Z,31.27
2022-12-18T19:04:47.583Z,33.60
2022-12-18T19:07:29.411Z,38.87
2022-12-18T19:10:03.997Z,45.17
2022-12-18T19:12:33.527Z,44.47
2022-12-18T19:15:00.657Z,24.73
2022-12-18T19:17:30.537Z,38.67
2022-12-18T19:19:57.847Z,30.43
2022-12-18T19:22:24.970Z,34.83
2022-12-18T19:24:52.052Z,38.73
2022-12-18T19:27:19.137Z,37.73
2022-12-18T19:29:49.143Z,36.47
2022-12-18T19:32:16.289Z,38.23
2022-12-18T19:34:43.499Z,41.33
2022-12-18T19:37:12.938Z,39.17
2022-12-18T19:39:40.190Z,23.37
2022-12-18T19:42:07.265Z,35.10
2022-12-18T19:44:34.369Z,48.63
2022-12-18T19:47:02.781Z,22.93
2022-12-18T19:49:29.886Z,28.07
2022-12-18T19:51:57.259Z,44.70
2022-12-18T19:54:24.439Z,34.10
2022-12-18T19:56:53.419Z,36.13
2022-12-18T19:59:20.524Z,33.03
2022-12-18T20:01:47.883Z,45.17
2022-12-18T20:04:16.648Z,52.33
2022-12-18T20:06:47.826Z,32.57
2022-12-18T20:09:15.375Z,42.47
2022-12-18T20:11:42.717Z,39.03
2022-12-18T20:14:10.318Z,30.80
2022-12-18T20:16:37.586Z,41.30
2022-12-18T20:19:05.061Z,34.30
2022-12-18T20:21:33.607Z,32.60
2022-12-18T20:24:00.785Z,34.63
2022-12-18T20:26:27.993Z,34.87
2022-12-18T20:28:55.438Z,53.03
2022-12-18T20:31:22.990Z,46.23
2022-12-18T20:33:52.048Z,42.37
2022-12-18T20:36:22.563Z,36.93
2022-12-18T20:38:52.417Z,43.23
2022-12-18T20:41:24.215Z,43.03
2022-12-18T20:43:51.684Z,44.10
2022-12-18T20:46:18.928Z,38.27
2022-12-18T20:48:46.244Z,38.80
2022-12-18T20:51:14.374Z,45.73
2022-12-18T20:53:42.596Z,46.00
2022-12-18T20:56:13.244Z,41.33
2022-12-18T20:58:43.753Z,31.37
2022-12-18T21:01:11.734Z,49.93
2022-12-18T21:03:39.317Z,41.83
2022-12-18T21:06:07.011Z,32.47
2022-12-18T21:08:34.421Z,34.40
2022-12-18T21:11:13.970Z,49.17
2022-12-18T21:13:41.528Z,47.17
2022-12-18T21:16:08.563Z,33.30
2022-12-18T21:18:37.636Z,32.63
2022-12-18T21:21:04.999Z,34.50
2022-12-18T21:23:35.429Z,40.30
2022-12-18T21:26:16.626Z,28.97
2022-12-18T21:28:43.774Z,36.50
2022-12-18T21:31:11.188Z,46.77
2022-12-18T21:33:39.129Z,43.23
2022-12-18T21:36:06.705Z,36.40
2022-12-18T21:38:33.855Z,44.23
2022-12-18T21:41:00.969Z,41.47
2022-12-18T21:43:29.397Z,38.87
2022-12-18T21:45:56.566Z,43.27
2022-12-18T21:48:25.763Z,45.57
2022-12-18T21:50:52.833Z,50.73
2022-12-18T21:53:19.961Z,36.33
2022-12-18T21:55:47.072Z,26.63
2022-12-18T21:58:14.300Z,30.03
2022-12-18T22:00:48.354Z,25.20
2022-12-18T22:03:18.331Z,39.90
2022-12-18T22:05:46.388Z,39.73
2022-12-18T22:08:16.836Z,56.33
2022-12-18T22:10:44.265Z,51.37
2022-12-18T22:13:11.449Z,49.27
2022-12-18T22:15:38.556Z,37.77
2022-12-18T22:18:07.079Z,51.23
2022-12-18T22:20:34.248Z,44.87
2022-12-18T22:23:05.760Z,54.33
2022-12-18T22:25:33.476Z,44.80
2022-12-18T22:28:02.314Z,47.03
2022-12-18T22:30:29.401Z,43.83
2022-12-18T22:32:56.512Z,47.77
2022-12-18T22:35:25.004Z,60.10
2022-12-18T22:37:52.090Z,49.50
2022-12-18T22:40:23.849Z,39.53
2022-12-18T22:42:51.817Z,40.60
2022-12-18T22:45:19.846Z,44.53
2022-12-18T22:47:46.994Z,32.97
2022-12-18T22:50:14.853Z,25.30
2022-12-18T22:52:43.322Z,49.60
2022-12-18T22:55:10.486Z,47.53
2022-12-18T22:57:37.557Z,46.87
2022-12-18T23:00:06.921Z,47.03
2022-12-18T23:02:34.204Z,39.73
2022-12-18T23:05:01.388Z,41.13
2022-12-18T23:07:28.495Z,45.73
2022-12-18T23:10:00.710Z,49.00
2022-12-18T23:12:28.512Z,36.23
2022-12-18T23:14:55.914Z,37.60
2022-12-18T23:17:23.025Z,57.17
2022-12-18T23:19:50.151Z,46.07
2022-12-18T23:22:17.283Z,57.30
2022-12-18T23:24:44.377Z,53.83
2022-12-18T23:27:12.851Z,49.20
2022-12-18T23:29:40.088Z,46.33
2022-12-18T23:32:07.238Z,47.00
2022-12-18T23:34:34.392Z,54.07
2022-12-18T23:37:01.539Z,31.43
2022-12-18T23:39:30.290Z,45.80
2022-12-18T23:41:57.660Z,40.17
2022-12-18T23:44:26.191Z,47.33
2022-12-18T23:46:53.374Z,31.33
2022-12-18T23:49:20.540Z,39.20
2022-12-18T23:51:47.644Z,42.43
2022-12-18T23:54:14.954Z,24.07
2022-12-18T23:56:42.089Z,44.03
2022-12-18T23:59:09.297Z,51.00
